Terminal Aerodrome Forecast
Issued by NWS Louisville, KY

Home | Current Version | Previous Version | Text Only | Print | Product List | Glossary On
Versions: 1 2 3 4 5 6 7 8 9 10 11 12 13 14
000
FTUS43 KLMK 122300
TAFSDF
TAF
KSDF 122323Z 1300/1406 21005KT P6SM BKN120
     FM131500 22012G18KT P6SM SCT050
     FM132300 23010KT P6SM VCTS SCT050CB=

USA.gov is the U.S. government's official web portal to all federal, state and local government web resources and services.